sensor_id;sensor_type;location;lat;lon;timestamp;P1;durP1;ratioP1;P2;durP2;ratioP2
22843;SDS011;11588;51.178;4.852;2023-04-19T00:00:27;29.48;;;22.58;;
22843;SDS011;11588;51.178;4.852;2023-04-19T00:02:52;28.30;;;22.92;;
22843;SDS011;11588;51.178;4.852;2023-04-19T00:05:18;27.55;;;22.80;;
22843;SDS011;11588;51.178;4.852;2023-04-19T00:07:44;28.45;;;23.27;;
22843;SDS011;11588;51.178;4.852;2023-04-19T00:10:11;28.70;;;23.02;;
22843;SDS011;11588;51.178;4.852;2023-04-19T00:12:37;28.33;;;23.02;;
22843;SDS011;11588;51.178;4.852;2023-04-19T00:15:02;29.63;;;23.90;;
22843;SDS011;11588;51.178;4.852;2023-04-19T00:17:28;30.73;;;23.77;;
22843;SDS011;11588;51.178;4.852;2023-04-19T00:19:53;29.27;;;22.48;;
22843;SDS011;11588;51.178;4.852;2023-04-19T00:22:19;29.23;;;22.08;;
22843;SDS011;11588;51.178;4.852;2023-04-19T00:24:45;29.55;;;22.88;;
22843;SDS011;11588;51.178;4.852;2023-04-19T00:27:10;29.42;;;23.20;;
22843;SDS011;11588;51.178;4.852;2023-04-19T00:29:36;30.13;;;23.55;;
22843;SDS011;11588;51.178;4.852;2023-04-19T00:32:01;29.60;;;23.20;;
22843;SDS011;11588;51.178;4.852;2023-04-19T00:34:28;29.92;;;24.17;;
22843;SDS011;11588;51.178;4.852;2023-04-19T00:36:53;30.92;;;24.77;;
22843;SDS011;11588;51.178;4.852;2023-04-19T00:39:19;30.88;;;24.67;;
22843;SDS011;11588;51.178;4.852;2023-04-19T00:41:45;31.20;;;23.83;;
22843;SDS011;11588;51.178;4.852;2023-04-19T00:44:10;27.58;;;23.15;;
22843;SDS011;11588;51.178;4.852;2023-04-19T00:46:36;29.08;;;24.00;;
22843;SDS011;11588;51.178;4.852;2023-04-19T00:49:03;30.98;;;24.30;;
22843;SDS011;11588;51.178;4.852;2023-04-19T00:51:29;29.00;;;24.25;;
22843;SDS011;11588;51.178;4.852;2023-04-19T00:53:55;31.83;;;25.27;;
22843;SDS011;11588;51.178;4.852;2023-04-19T00:56:21;28.50;;;24.48;;
22843;SDS011;11588;51.178;4.852;2023-04-19T00:58:48;30.58;;;23.80;;
22843;SDS011;11588;51.178;4.852;2023-04-19T01:01:13;29.05;;;24.98;;
22843;SDS011;11588;51.178;4.852;2023-04-19T01:03:38;31.23;;;24.67;;
22843;SDS011;11588;51.178;4.852;2023-04-19T01:06:04;30.42;;;24.88;;
22843;SDS011;11588;51.178;4.852;2023-04-19T01:08:29;29.65;;;23.75;;
22843;SDS011;11588;51.178;4.852;2023-04-19T01:10:54;30.40;;;25.02;;
22843;SDS011;11588;51.178;4.852;2023-04-19T01:13:20;32.47;;;25.55;;
22843;SDS011;11588;51.178;4.852;2023-04-19T01:15:45;31.67;;;24.85;;
22843;SDS011;11588;51.178;4.852;2023-04-19T01:18:11;31.08;;;25.15;;
22843;SDS011;11588;51.178;4.852;2023-04-19T01:20:38;32.17;;;25.05;;
22843;SDS011;11588;51.178;4.852;2023-04-19T01:23:03;32.90;;;26.25;;
22843;SDS011;11588;51.178;4.852;2023-04-19T01:25:28;33.80;;;25.42;;
22843;SDS011;11588;51.178;4.852;2023-04-19T01:27:54;33.35;;;25.52;;
22843;SDS011;11588;51.178;4.852;2023-04-19T01:30:19;33.58;;;26.10;;
22843;SDS011;11588;51.178;4.852;2023-04-19T01:32:46;33.05;;;25.80;;
22843;SDS011;11588;51.178;4.852;2023-04-19T01:35:11;30.25;;;24.92;;
22843;SDS011;11588;51.178;4.852;2023-04-19T01:37:36;33.47;;;26.00;;
22843;SDS011;11588;51.178;4.852;2023-04-19T01:40:03;32.72;;;26.10;;
22843;SDS011;11588;51.178;4.852;2023-04-19T01:42:29;33.08;;;25.40;;
22843;SDS011;11588;51.178;4.852;2023-04-19T01:44:54;31.85;;;25.98;;
22843;SDS011;11588;51.178;4.852;2023-04-19T01:47:20;34.97;;;25.75;;
22843;SDS011;11588;51.178;4.852;2023-04-19T01:49:45;31.55;;;25.90;;
22843;SDS011;11588;51.178;4.852;2023-04-19T01:52:11;32.67;;;25.48;;
22843;SDS011;11588;51.178;4.852;2023-04-19T01:54:36;32.88;;;26.20;;
22843;SDS011;11588;51.178;4.852;2023-04-19T01:57:01;31.92;;;25.75;;
22843;SDS011;11588;51.178;4.852;2023-04-19T01:59:27;32.67;;;25.20;;
22843;SDS011;11588;51.178;4.852;2023-04-19T02:01:52;35.15;;;26.60;;
22843;SDS011;11588;51.178;4.852;2023-04-19T02:04:19;31.00;;;25.25;;
22843;SDS011;11588;51.178;4.852;2023-04-19T02:06:46;34.35;;;25.33;;
22843;SDS011;11588;51.178;4.852;2023-04-19T02:09:11;32.55;;;25.65;;
22843;SDS011;11588;51.178;4.852;2023-04-19T02:11:38;31.73;;;25.15;;
22843;SDS011;11588;51.178;4.852;2023-04-19T02:14:03;32.30;;;24.55;;
22843;SDS011;11588;51.178;4.852;2023-04-19T02:16:28;31.48;;;25.15;;
22843;SDS011;11588;51.178;4.852;2023-04-19T02:18:55;31.95;;;25.55;;
22843;SDS011;11588;51.178;4.852;2023-04-19T02:21:20;30.13;;;24.00;;
22843;SDS011;11588;51.178;4.852;2023-04-19T02:23:46;32.33;;;25.58;;
22843;SDS011;11588;51.178;4.852;2023-04-19T02:26:11;32.67;;;25.17;;
22843;SDS011;11588;51.178;4.852;2023-04-19T02:28:37;33.25;;;25.83;;
22843;SDS011;11588;51.178;4.852;2023-04-19T02:31:04;30.88;;;24.95;;
22843;SDS011;11588;51.178;4.852;2023-04-19T02:33:30;31.13;;;25.25;;
22843;SDS011;11588;51.178;4.852;2023-04-19T02:35:56;31.02;;;24.95;;
22843;SDS011;11588;51.178;4.852;2023-04-19T02:38:21;32.33;;;26.05;;
22843;SDS011;11588;51.178;4.852;2023-04-19T02:40:46;29.73;;;24.40;;
22843;SDS011;11588;51.178;4.852;2023-04-19T02:43:12;32.60;;;25.10;;
22843;SDS011;11588;51.178;4.852;2023-04-19T02:45:37;32.08;;;25.85;;
22843;SDS011;11588;51.178;4.852;2023-04-19T02:48:02;34.88;;;25.35;;
22843;SDS011;11588;51.178;4.852;2023-04-19T02:50:30;31.42;;;25.73;;
22843;SDS011;11588;51.178;4.852;2023-04-19T02:52:56;31.50;;;25.00;;
22843;SDS011;11588;51.178;4.852;2023-04-19T02:55:21;31.77;;;25.02;;
22843;SDS011;11588;51.178;4.852;2023-04-19T02:57:47;32.45;;;25.00;;
22843;SDS011;11588;51.178;4.852;2023-04-19T03:00:12;32.53;;;24.90;;
22843;SDS011;11588;51.178;4.852;2023-04-19T03:02:37;30.65;;;25.23;;
22843;SDS011;11588;51.178;4.852;2023-04-19T03:05:04;33.45;;;26.67;;
22843;SDS011;11588;51.178;4.852;2023-04-19T03:07:30;33.85;;;26.13;;
22843;SDS011;11588;51.178;4.852;2023-04-19T03:09:55;30.55;;;25.13;;
22843;SDS011;11588;51.178;4.852;2023-04-19T03:12:21;28.25;;;24.23;;
22843;SDS011;11588;51.178;4.852;2023-04-19T03:14:46;32.75;;;24.58;;
22843;SDS011;11588;51.178;4.852;2023-04-19T03:17:11;33.65;;;25.98;;
22843;SDS011;11588;51.178;4.852;2023-04-19T03:19:38;32.10;;;25.55;;
22843;SDS011;11588;51.178;4.852;2023-04-19T03:22:03;31.65;;;24.60;;
22843;SDS011;11588;51.178;4.852;2023-04-19T03:24:29;32.83;;;26.13;;
22843;SDS011;11588;51.178;4.852;2023-04-19T03:26:54;34.95;;;26.67;;
22843;SDS011;11588;51.178;4.852;2023-04-19T03:29:20;32.10;;;24.98;;
22843;SDS011;11588;51.178;4.852;2023-04-19T03:31:45;33.22;;;25.90;;
22843;SDS011;11588;51.178;4.852;2023-04-19T03:34:10;35.75;;;27.55;;
22843;SDS011;11588;51.178;4.852;2023-04-19T03:36:36;32.70;;;25.60;;
22843;SDS011;11588;51.178;4.852;2023-04-19T03:39:02;32.17;;;25.05;;
22843;SDS011;11588;51.178;4.852;2023-04-19T03:41:27;33.30;;;26.80;;
22843;SDS011;11588;51.178;4.852;2023-04-19T03:43:52;36.20;;;26.05;;
22843;SDS011;11588;51.178;4.852;2023-04-19T03:46:18;38.10;;;27.42;;
22843;SDS011;11588;51.178;4.852;2023-04-19T03:48:43;34.22;;;25.55;;
22843;SDS011;11588;51.178;4.852;2023-04-19T03:51:09;33.38;;;26.23;;
22843;SDS011;11588;51.178;4.852;2023-04-19T03:53:36;33.42;;;26.27;;
22843;SDS011;11588;51.178;4.852;2023-04-19T03:56:04;33.55;;;26.15;;
22843;SDS011;11588;51.178;4.852;2023-04-19T03:58:29;31.52;;;25.88;;
22843;SDS011;11588;51.178;4.852;2023-04-19T04:00:54;39.47;;;26.95;;
22843;SDS011;11588;51.178;4.852;2023-04-19T04:03:20;34.78;;;25.88;;
22843;SDS011;11588;51.178;4.852;2023-04-19T04:05:45;34.90;;;27.17;;
22843;SDS011;11588;51.178;4.852;2023-04-19T04:08:10;33.58;;;26.02;;
22843;SDS011;11588;51.178;4.852;2023-04-19T04:10:36;36.85;;;26.80;;
22843;SDS011;11588;51.178;4.852;2023-04-19T04:13:02;32.08;;;24.95;;
22843;SDS011;11588;51.178;4.852;2023-04-19T04:15:28;33.83;;;25.40;;
22843;SDS011;11588;51.178;4.852;2023-04-19T04:17:55;34.72;;;26.70;;
22843;SDS011;11588;51.178;4.852;2023-04-19T04:20:20;34.45;;;25.65;;
22843;SDS011;11588;51.178;4.852;2023-04-19T04:22:46;37.35;;;26.63;;
22843;SDS011;11588;51.178;4.852;2023-04-19T04:25:11;36.70;;;26.42;;
22843;SDS011;11588;51.178;4.852;2023-04-19T04:27:38;35.00;;;26.35;;
22843;SDS011;11588;51.178;4.852;2023-04-19T04:30:04;33.58;;;26.67;;
22843;SDS011;11588;51.178;4.852;2023-04-19T04:32:30;31.52;;;25.92;;
22843;SDS011;11588;51.178;4.852;2023-04-19T04:35:02;34.75;;;25.92;;
22843;SDS011;11588;51.178;4.852;2023-04-19T04:37:27;36.03;;;26.33;;
22843;SDS011;11588;51.178;4.852;2023-04-19T04:39:55;35.83;;;27.02;;
22843;SDS011;11588;51.178;4.852;2023-04-19T04:42:21;35.97;;;27.70;;
22843;SDS011;11588;51.178;4.852;2023-04-19T04:44:46;33.70;;;25.23;;
22843;SDS011;11588;51.178;4.852;2023-04-19T04:47:12;35.83;;;26.83;;
22843;SDS011;11588;51.178;4.852;2023-04-19T04:49:37;37.10;;;26.90;;
22843;SDS011;11588;51.178;4.852;2023-04-19T04:52:02;33.47;;;26.08;;
22843;SDS011;11588;51.178;4.852;2023-04-19T04:54:28;38.08;;;27.73;;
22843;SDS011;11588;51.178;4.852;2023-04-19T04:56:53;36.35;;;26.63;;
22843;SDS011;11588;51.178;4.852;2023-04-19T04:59:20;39.55;;;27.92;;
22843;SDS011;11588;51.178;4.852;2023-04-19T05:01:45;39.72;;;27.50;;
22843;SDS011;11588;51.178;4.852;2023-04-19T05:04:10;36.15;;;27.52;;
22843;SDS011;11588;51.178;4.852;2023-04-19T05:06:36;35.55;;;27.33;;
22843;SDS011;11588;51.178;4.852;2023-04-19T05:09:04;38.50;;;27.60;;
22843;SDS011;11588;51.178;4.852;2023-04-19T05:11:30;38.88;;;27.55;;
22843;SDS011;11588;51.178;4.852;2023-04-19T05:13:55;39.28;;;26.38;;
22843;SDS011;11588;51.178;4.852;2023-04-19T05:16:21;39.15;;;27.73;;
22843;SDS011;11588;51.178;4.852;2023-04-19T05:18:48;39.10;;;27.83;;
22843;SDS011;11588;51.178;4.852;2023-04-19T05:21:14;38.00;;;28.25;;
22843;SDS011;11588;51.178;4.852;2023-04-19T05:23:39;38.78;;;27.42;;
22843;SDS011;11588;51.178;4.852;2023-04-19T05:26:05;34.90;;;26.52;;
22843;SDS011;11588;51.178;4.852;2023-04-19T05:28:30;38.22;;;27.35;;
22843;SDS011;11588;51.178;4.852;2023-04-19T05:30:55;36.42;;;27.55;;
22843;SDS011;11588;51.178;4.852;2023-04-19T05:33:21;38.78;;;26.90;;
22843;SDS011;11588;51.178;4.852;2023-04-19T05:35:46;35.65;;;25.58;;
22843;SDS011;11588;51.178;4.852;2023-04-19T05:38:13;37.75;;;25.42;;
22843;SDS011;11588;51.178;4.852;2023-04-19T05:40:38;36.38;;;25.25;;
22843;SDS011;11588;51.178;4.852;2023-04-19T05:43:04;33.90;;;25.00;;
22843;SDS011;11588;51.178;4.852;2023-04-19T05:45:29;35.25;;;25.85;;
22843;SDS011;11588;51.178;4.852;2023-04-19T05:47:55;36.92;;;25.35;;
22843;SDS011;11588;51.178;4.852;2023-04-19T05:50:20;32.33;;;23.20;;
22843;SDS011;11588;51.178;4.852;2023-04-19T05:52:45;33.13;;;24.98;;
22843;SDS011;11588;51.178;4.852;2023-04-19T05:55:11;33.60;;;23.15;;
22843;SDS011;11588;51.178;4.852;2023-04-19T05:57:36;32.42;;;23.63;;
22843;SDS011;11588;51.178;4.852;2023-04-19T06:00:03;28.55;;;22.63;;
22843;SDS011;11588;51.178;4.852;2023-04-19T06:02:29;29.20;;;22.70;;
22843;SDS011;11588;51.178;4.852;2023-04-19T06:04:55;31.02;;;21.90;;
22843;SDS011;11588;51.178;4.852;2023-04-19T06:07:23;28.00;;;20.98;;
22843;SDS011;11588;51.178;4.852;2023-04-19T06:09:48;30.33;;;21.77;;
22843;SDS011;11588;51.178;4.852;2023-04-19T06:12:13;28.15;;;20.95;;
22843;SDS011;11588;51.178;4.852;2023-04-19T06:14:40;30.80;;;22.80;;
22843;SDS011;11588;51.178;4.852;2023-04-19T06:17:06;29.60;;;21.88;;
22843;SDS011;11588;51.178;4.852;2023-04-19T06:19:31;31.92;;;22.50;;
22843;SDS011;11588;51.178;4.852;2023-04-19T06:21:59;30.85;;;22.48;;
22843;SDS011;11588;51.178;4.852;2023-04-19T06:24:25;27.55;;;20.70;;
22843;SDS011;11588;51.178;4.852;2023-04-19T06:26:51;28.85;;;20.63;;
22843;SDS011;11588;51.178;4.852;2023-04-19T06:29:17;27.90;;;20.42;;
22843;SDS011;11588;51.178;4.852;2023-04-19T06:31:45;31.10;;;20.25;;
22843;SDS011;11588;51.178;4.852;2023-04-19T06:34:11;27.27;;;19.98;;
22843;SDS011;11588;51.178;4.852;2023-04-19T06:36:37;28.42;;;19.83;;
22843;SDS011;11588;51.178;4.852;2023-04-19T06:39:02;26.30;;;19.02;;
22843;SDS011;11588;51.178;4.852;2023-04-19T06:41:28;26.15;;;19.77;;
22843;SDS011;11588;51.178;4.852;2023-04-19T06:43:53;25.10;;;18.88;;
22843;SDS011;11588;51.178;4.852;2023-04-19T06:46:18;21.63;;;18.23;;
22843;SDS011;11588;51.178;4.852;2023-04-19T06:48:44;25.73;;;20.13;;
22843;SDS011;11588;51.178;4.852;2023-04-19T06:51:09;23.92;;;18.77;;
22843;SDS011;11588;51.178;4.852;2023-04-19T06:53:35;25.42;;;19.08;;
22843;SDS011;11588;51.178;4.852;2023-04-19T06:56:01;29.08;;;19.70;;
22843;SDS011;11588;51.178;4.852;2023-04-19T06:58:28;22.83;;;18.13;;
22843;SDS011;11588;51.178;4.852;2023-04-19T07:00:54;25.20;;;18.30;;
22843;SDS011;11588;51.178;4.852;2023-04-19T07:03:20;22.13;;;18.05;;
22843;SDS011;11588;51.178;4.852;2023-04-19T07:05:45;26.88;;;17.73;;
22843;SDS011;11588;51.178;4.852;2023-04-19T07:08:11;22.17;;;17.58;;
22843;SDS011;11588;51.178;4.852;2023-04-19T07:10:37;21.95;;;16.83;;
22843;SDS011;11588;51.178;4.852;2023-04-19T07:13:02;24.50;;;17.20;;
22843;SDS011;11588;51.178;4.852;2023-04-19T07:15:27;20.05;;;16.52;;
22843;SDS011;11588;51.178;4.852;2023-04-19T07:17:53;24.67;;;16.17;;
22843;SDS011;11588;51.178;4.852;2023-04-19T07:20:19;18.95;;;15.38;;
22843;SDS011;11588;51.178;4.852;2023-04-19T07:22:45;23.50;;;15.15;;
22843;SDS011;11588;51.178;4.852;2023-04-19T07:25:10;20.70;;;14.90;;
22843;SDS011;11588;51.178;4.852;2023-04-19T07:27:36;23.45;;;14.20;;
22843;SDS011;11588;51.178;4.852;2023-04-19T07:30:01;19.33;;;13.93;;
22843;SDS011;11588;51.178;4.852;2023-04-19T07:32:26;16.02;;;13.10;;
22843;SDS011;11588;51.178;4.852;2023-04-19T07:34:52;18.13;;;13.35;;
22843;SDS011;11588;51.178;4.852;2023-04-19T07:37:18;16.50;;;12.45;;
22843;SDS011;11588;51.178;4.852;2023-04-19T07:39:43;16.77;;;12.93;;
22843;SDS011;11588;51.178;4.852;2023-04-19T07:42:09;17.13;;;12.07;;
22843;SDS011;11588;51.178;4.852;2023-04-19T07:44:34;14.10;;;11.02;;
22843;SDS011;11588;51.178;4.852;2023-04-19T07:47:00;14.55;;;12.32;;
22843;SDS011;11588;51.178;4.852;2023-04-19T07:49:25;14.82;;;11.38;;
22843;SDS011;11588;51.178;4.852;2023-04-19T07:51:50;13.05;;;11.48;;
22843;SDS011;11588;51.178;4.852;2023-04-19T07:54:16;13.88;;;11.18;;
22843;SDS011;11588;51.178;4.852;2023-04-19T07:56:44;16.58;;;10.68;;
22843;SDS011;11588;51.178;4.852;2023-04-19T07:59:10;14.32;;;11.10;;
22843;SDS011;11588;51.178;4.852;2023-04-19T08:01:36;14.27;;;11.30;;
22843;SDS011;11588;51.178;4.852;2023-04-19T08:04:01;17.70;;;11.25;;
22843;SDS011;11588;51.178;4.852;2023-04-19T08:09:13;14.77;;;10.27;;
22843;SDS011;11588;51.178;4.852;2023-04-19T08:11:38;13.75;;;11.20;;
22843;SDS011;11588;51.178;4.852;2023-04-19T08:14:04;14.52;;;10.90;;
22843;SDS011;11588;51.178;4.852;2023-04-19T08:16:29;14.07;;;10.70;;
22843;SDS011;11588;51.178;4.852;2023-04-19T08:18:54;15.93;;;10.25;;
22843;SDS011;11588;51.178;4.852;2023-04-19T08:21:20;19.27;;;10.98;;
22843;SDS011;11588;51.178;4.852;2023-04-19T08:23:46;13.88;;;10.55;;
22843;SDS011;11588;51.178;4.852;2023-04-19T08:26:12;14.40;;;10.27;;
22843;SDS011;11588;51.178;4.852;2023-04-19T08:28:37;13.20;;;10.70;;
22843;SDS011;11588;51.178;4.852;2023-04-19T08:31:05;14.63;;;11.23;;
22843;SDS011;11588;51.178;4.852;2023-04-19T08:33:32;14.05;;;10.75;;
22843;SDS011;11588;51.178;4.852;2023-04-19T08:35:57;11.98;;;10.23;;
22843;SDS011;11588;51.178;4.852;2023-04-19T08:38:23;13.90;;;10.75;;
22843;SDS011;11588;51.178;4.852;2023-04-19T08:40:51;12.73;;;10.43;;
22843;SDS011;11588;51.178;4.852;2023-04-19T08:43:17;13.63;;;10.48;;
22843;SDS011;11588;51.178;4.852;2023-04-19T08:45:44;13.10;;;11.07;;
22843;SDS011;11588;51.178;4.852;2023-04-19T08:48:10;12.95;;;10.13;;
22843;SDS011;11588;51.178;4.852;2023-04-19T08:50:35;12.65;;;10.10;;
22843;SDS011;11588;51.178;4.852;2023-04-19T08:53:05;11.25;;;9.65;;
22843;SDS011;11588;51.178;4.852;2023-04-19T08:55:31;12.32;;;9.88;;
22843;SDS011;11588;51.178;4.852;2023-04-19T08:57:57;11.93;;;10.60;;
22843;SDS011;11588;51.178;4.852;2023-04-19T09:00:24;12.00;;;10.50;;
22843;SDS011;11588;51.178;4.852;2023-04-19T09:02:50;13.65;;;10.90;;
22843;SDS011;11588;51.178;4.852;2023-04-19T09:05:20;13.77;;;9.95;;
22843;SDS011;11588;51.178;4.852;2023-04-19T09:07:45;15.07;;;10.57;;
22843;SDS011;11588;51.178;4.852;2023-04-19T09:10:12;12.77;;;10.10;;
22843;SDS011;11588;51.178;4.852;2023-04-19T09:12:38;12.50;;;10.65;;
22843;SDS011;11588;51.178;4.852;2023-04-19T09:15:04;12.95;;;10.50;;
22843;SDS011;11588;51.178;4.852;2023-04-19T09:17:32;11.93;;;10.02;;
22843;SDS011;11588;51.178;4.852;2023-04-19T09:19:58;11.18;;;10.07;;
22843;SDS011;11588;51.178;4.852;2023-04-19T09:22:23;10.95;;;9.52;;
22843;SDS011;11588;51.178;4.852;2023-04-19T09:24:50;15.20;;;9.95;;
22843;SDS011;11588;51.178;4.852;2023-04-19T09:27:18;10.32;;;8.82;;
22843;SDS011;11588;51.178;4.852;2023-04-19T09:29:52;11.73;;;9.88;;
22843;SDS011;11588;51.178;4.852;2023-04-19T09:32:17;13.00;;;10.10;;
22843;SDS011;11588;51.178;4.852;2023-04-19T09:37:17;14.10;;;9.30;;
22843;SDS011;11588;51.178;4.852;2023-04-19T09:39:42;11.00;;;8.98;;
22843;SDS011;11588;51.178;4.852;2023-04-19T09:42:08;10.27;;;8.32;;
22843;SDS011;11588;51.178;4.852;2023-04-19T09:44:34;10.43;;;9.07;;
22843;SDS011;11588;51.178;4.852;2023-04-19T09:47:01;10.90;;;8.95;;
22843;SDS011;11588;51.178;4.852;2023-04-19T09:49:27;10.30;;;9.23;;
22843;SDS011;11588;51.178;4.852;2023-04-19T09:51:53;12.18;;;8.68;;
22843;SDS011;11588;51.178;4.852;2023-04-19T09:54:20;10.48;;;8.85;;
22843;SDS011;11588;51.178;4.852;2023-04-19T09:56:46;10.10;;;9.10;;
22843;SDS011;11588;51.178;4.852;2023-04-19T09:59:12;10.32;;;8.88;;
22843;SDS011;11588;51.178;4.852;2023-04-19T10:01:38;10.68;;;8.75;;
22843;SDS011;11588;51.178;4.852;2023-04-19T10:04:04;12.07;;;8.90;;
22843;SDS011;11588;51.178;4.852;2023-04-19T10:06:31;11.63;;;8.75;;
22843;SDS011;11588;51.178;4.852;2023-04-19T10:08:59;10.68;;;8.00;;
22843;SDS011;11588;51.178;4.852;2023-04-19T10:11:25;12.65;;;8.52;;
22843;SDS011;11588;51.178;4.852;2023-04-19T10:13:52;9.75;;;8.05;;
22843;SDS011;11588;51.178;4.852;2023-04-19T10:16:21;13.60;;;8.20;;
22843;SDS011;11588;51.178;4.852;2023-04-19T10:18:47;10.00;;;8.77;;
22843;SDS011;11588;51.178;4.852;2023-04-19T10:21:13;10.40;;;8.30;;
22843;SDS011;11588;51.178;4.852;2023-04-19T10:23:40;10.05;;;8.70;;
22843;SDS011;11588;51.178;4.852;2023-04-19T10:26:07;9.40;;;8.38;;
22843;SDS011;11588;51.178;4.852;2023-04-19T10:28:32;10.65;;;8.43;;
22843;SDS011;11588;51.178;4.852;2023-04-19T10:31:00;10.13;;;8.50;;
22843;SDS011;11588;51.178;4.852;2023-04-19T10:33:26;9.23;;;8.10;;
22843;SDS011;11588;51.178;4.852;2023-04-19T10:35:54;11.60;;;8.30;;
22843;SDS011;11588;51.178;4.852;2023-04-19T10:38:20;10.20;;;8.25;;
22843;SDS011;11588;51.178;4.852;2023-04-19T10:40:59;12.93;;;9.13;;
22843;SDS011;11588;51.178;4.852;2023-04-19T10:43:27;10.77;;;8.85;;
22843;SDS011;11588;51.178;4.852;2023-04-19T10:45:53;10.80;;;8.68;;
22843;SDS011;11588;51.178;4.852;2023-04-19T10:50:57;11.48;;;7.80;;
22843;SDS011;11588;51.178;4.852;2023-04-19T10:55:56;10.65;;;7.95;;
22843;SDS011;11588;51.178;4.852;2023-04-19T10:58:21;11.20;;;8.50;;
22843;SDS011;11588;51.178;4.852;2023-04-19T11:00:46;10.07;;;8.13;;
22843;SDS011;11588;51.178;4.852;2023-04-19T11:08:21;8.10;;;7.15;;
22843;SDS011;11588;51.178;4.852;2023-04-19T11:10:48;8.85;;;7.25;;
22843;SDS011;11588;51.178;4.852;2023-04-19T11:13:13;11.52;;;7.15;;
22843;SDS011;11588;51.178;4.852;2023-04-19T11:15:41;9.13;;;7.68;;
22843;SDS011;11588;51.178;4.852;2023-04-19T11:18:08;11.18;;;7.25;;
22843;SDS011;11588;51.178;4.852;2023-04-19T11:20:43;11.77;;;7.40;;
22843;SDS011;11588;51.178;4.852;2023-04-19T11:23:14;9.20;;;7.25;;
22843;SDS011;11588;51.178;4.852;2023-04-19T11:25:42;11.07;;;6.25;;
22843;SDS011;11588;51.178;4.852;2023-04-19T11:28:09;7.63;;;5.70;;
22843;SDS011;11588;51.178;4.852;2023-04-19T11:30:36;7.75;;;6.43;;
22843;SDS011;11588;51.178;4.852;2023-04-19T11:33:01;9.63;;;6.28;;
22843;SDS011;11588;51.178;4.852;2023-04-19T11:35:27;7.32;;;5.57;;
22843;SDS011;11588;51.178;4.852;2023-04-19T11:37:53;8.90;;;6.15;;
22843;SDS011;11588;51.178;4.852;2023-04-19T11:40:21;6.43;;;5.30;;
22843;SDS011;11588;51.178;4.852;2023-04-19T11:42:52;10.68;;;5.72;;
22843;SDS011;11588;51.178;4.852;2023-04-19T11:47:53;9.93;;;5.13;;
22843;SDS011;11588;51.178;4.852;2023-04-19T11:52:51;6.22;;;4.90;;
22843;SDS011;11588;51.178;4.852;2023-04-19T11:55:17;7.63;;;4.60;;
22843;SDS011;11588;51.178;4.852;2023-04-19T11:57:44;11.55;;;4.90;;
22843;SDS011;11588;51.178;4.852;2023-04-19T12:00:12;9.73;;;5.32;;
22843;SDS011;11588;51.178;4.852;2023-04-19T12:02:38;7.28;;;4.80;;
22843;SDS011;11588;51.178;4.852;2023-04-19T12:07:37;5.03;;;4.53;;
22843;SDS011;11588;51.178;4.852;2023-04-19T12:10:21;6.65;;;4.35;;
22843;SDS011;11588;51.178;4.852;2023-04-19T12:12:46;9.07;;;4.85;;
22843;SDS011;11588;51.178;4.852;2023-04-19T12:15:11;7.65;;;4.45;;
22843;SDS011;11588;51.178;4.852;2023-04-19T12:17:54;12.18;;;4.88;;
22843;SDS011;11588;51.178;4.852;2023-04-19T12:22:52;6.13;;;4.03;;
22843;SDS011;11588;51.178;4.852;2023-04-19T12:25:18;6.43;;;4.03;;
22843;SDS011;11588;51.178;4.852;2023-04-19T12:27:43;7.45;;;3.58;;
22843;SDS011;11588;51.178;4.852;2023-04-19T12:30:09;5.82;;;3.22;;
22843;SDS011;11588;51.178;4.852;2023-04-19T12:32:35;5.82;;;3.67;;
22843;SDS011;11588;51.178;4.852;2023-04-19T12:35:00;7.43;;;3.60;;
22843;SDS011;11588;51.178;4.852;2023-04-19T12:37:27;6.65;;;3.83;;
22843;SDS011;11588;51.178;4.852;2023-04-19T12:39:53;7.72;;;4.05;;
22843;SDS011;11588;51.178;4.852;2023-04-19T12:42:19;6.00;;;3.60;;
22843;SDS011;11588;51.178;4.852;2023-04-19T12:44:44;5.53;;;3.47;;
22843;SDS011;11588;51.178;4.852;2023-04-19T12:47:10;12.00;;;3.50;;
22843;SDS011;11588;51.178;4.852;2023-04-19T12:49:35;3.17;;;2.88;;
22843;SDS011;11588;51.178;4.852;2023-04-19T12:52:00;8.77;;;3.83;;
22843;SDS011;11588;51.178;4.852;2023-04-19T12:54:27;8.38;;;3.50;;
22843;SDS011;11588;51.178;4.852;2023-04-19T12:56:53;7.78;;;3.25;;
22843;SDS011;11588;51.178;4.852;2023-04-19T12:59:19;7.22;;;3.00;;
22843;SDS011;11588;51.178;4.852;2023-04-19T13:01:46;4.10;;;2.65;;
22843;SDS011;11588;51.178;4.852;2023-04-19T13:04:11;5.72;;;3.15;;
22843;SDS011;11588;51.178;4.852;2023-04-19T13:06:36;8.95;;;3.47;;
22843;SDS011;11588;51.178;4.852;2023-04-19T13:09:02;6.80;;;2.83;;
22843;SDS011;11588;51.178;4.852;2023-04-19T13:11:28;7.28;;;3.10;;
22843;SDS011;11588;51.178;4.852;2023-04-19T13:13:53;6.35;;;3.03;;
22843;SDS011;11588;51.178;4.852;2023-04-19T13:16:19;6.93;;;2.60;;
22843;SDS011;11588;51.178;4.852;2023-04-19T13:18:45;4.68;;;2.72;;
22843;SDS011;11588;51.178;4.852;2023-04-19T13:21:11;5.50;;;2.83;;
22843;SDS011;11588;51.178;4.852;2023-04-19T13:23:36;4.35;;;2.45;;
22843;SDS011;11588;51.178;4.852;2023-04-19T13:26:01;3.30;;;2.85;;
22843;SDS011;11588;51.178;4.852;2023-04-19T13:28:29;6.43;;;2.55;;
22843;SDS011;11588;51.178;4.852;2023-04-19T13:30:55;6.60;;;2.45;;
22843;SDS011;11588;51.178;4.852;2023-04-19T13:33:20;5.85;;;2.63;;
22843;SDS011;11588;51.178;4.852;2023-04-19T13:35:45;6.88;;;2.90;;
22843;SDS011;11588;51.178;4.852;2023-04-19T13:38:11;6.93;;;2.90;;
22843;SDS011;11588;51.178;4.852;2023-04-19T13:40:36;6.45;;;3.10;;
22843;SDS011;11588;51.178;4.852;2023-04-19T13:43:01;4.65;;;2.75;;
22843;SDS011;11588;51.178;4.852;2023-04-19T13:45:27;5.18;;;2.92;;
22843;SDS011;11588;51.178;4.852;2023-04-19T13:47:54;3.03;;;2.42;;
22843;SDS011;11588;51.178;4.852;2023-04-19T13:50:19;4.05;;;3.00;;
22843;SDS011;11588;51.178;4.852;2023-04-19T13:52:45;4.85;;;2.90;;
22843;SDS011;11588;51.178;4.852;2023-04-19T13:55:10;7.95;;;3.40;;
22843;SDS011;11588;51.178;4.852;2023-04-19T13:57:35;6.40;;;3.40;;
22843;SDS011;11588;51.178;4.852;2023-04-19T14:00:01;5.97;;;2.90;;
22843;SDS011;11588;51.178;4.852;2023-04-19T14:02:26;4.95;;;3.28;;
22843;SDS011;11588;51.178;4.852;2023-04-19T14:04:52;5.50;;;2.55;;
22843;SDS011;11588;51.178;4.852;2023-04-19T14:07:17;4.40;;;3.05;;
22843;SDS011;11588;51.178;4.852;2023-04-19T14:09:43;5.50;;;3.15;;
22843;SDS011;11588;51.178;4.852;2023-04-19T14:12:08;3.88;;;3.20;;
22843;SDS011;11588;51.178;4.852;2023-04-19T14:14:34;4.38;;;3.13;;
22843;SDS011;11588;51.178;4.852;2023-04-19T14:16:59;7.03;;;2.85;;
22843;SDS011;11588;51.178;4.852;2023-04-19T14:19:26;5.35;;;3.20;;
22843;SDS011;11588;51.178;4.852;2023-04-19T14:21:52;5.78;;;3.33;;
22843;SDS011;11588;51.178;4.852;2023-04-19T14:24:17;4.18;;;2.97;;
22843;SDS011;11588;51.178;4.852;2023-04-19T14:26:42;5.97;;;3.45;;
22843;SDS011;11588;51.178;4.852;2023-04-19T14:29:08;8.23;;;3.22;;
22843;SDS011;11588;51.178;4.852;2023-04-19T14:31:33;6.10;;;3.20;;
22843;SDS011;11588;51.178;4.852;2023-04-19T14:33:58;5.22;;;3.03;;
22843;SDS011;11588;51.178;4.852;2023-04-19T14:36:24;7.68;;;3.10;;
22843;SDS011;11588;51.178;4.852;2023-04-19T14:38:52;4.32;;;2.92;;
22843;SDS011;11588;51.178;4.852;2023-04-19T14:41:17;4.85;;;3.13;;
22843;SDS011;11588;51.178;4.852;2023-04-19T14:43:43;8.73;;;3.17;;
22843;SDS011;11588;51.178;4.852;2023-04-19T14:46:08;6.90;;;2.70;;